Time;durP1;ratioP1;P1;durP2;ratioP2;P2;SDS_P1;SDS_P2;PMS_P1;PMS_P2;Temp;Humidity;BMP_temperature;BMP_pressure;BME280_temperature;BME280_humidity;BME280_pressure;Samples;Min_cycle;Max_cycle;Signal;HPM_P1;HPM_P2
2023/07/30 00:01:24;;;;;;;10.25;6.00;;;;;;;26.49;38.36;99329.00;5090349;28;20035;-45
2023/07/30 00:03:50;;;;;;;8.32;5.25;;;;;;;26.83;37.67;99324.72;5090527;28;20016;-43
2023/07/30 00:06:15;;;;;;;10.15;5.28;;;;;;;26.37;38.72;99328.03;5090586;28;20028;-43
2023/07/30 00:08:41;;;;;;;12.52;4.95;;;;;;;26.22;38.96;99324.66;5090435;28;20081;-42
2023/07/30 00:11:06;;;;;;;8.45;5.10;;;;;;;26.21;39.30;99322.22;5090772;28;20380;-44
2023/07/30 00:13:31;;;;;;;10.80;5.47;;;;;;;26.31;39.06;99321.91;5091075;28;20035;-44
2023/07/30 00:15:57;;;;;;;8.40;5.00;;;;;;;26.25;39.36;99324.00;5091187;28;20034;-42
2023/07/30 00:18:22;;;;;;;10.57;4.90;;;;;;;26.90;37.99;99327.78;5091015;28;20035;-43
2023/07/30 00:20:48;;;;;;;7.25;4.60;;;;;;;26.21;39.18;99320.28;5089977;28;20363;-42
2023/07/30 00:23:13;;;;;;;8.07;4.95;;;;;;;26.05;39.55;99311.78;5090497;28;20039;-43
2023/07/30 00:25:38;;;;;;;6.60;4.45;;;;;;;26.18;39.42;99320.13;5090676;28;20020;-42
2023/07/30 00:28:04;;;;;;;6.60;4.70;;;;;;;26.09;39.54;99312.75;5090987;28;20077;-42
2023/07/30 00:30:29;;;;;;;9.25;4.95;;;;;;;26.08;39.85;99307.59;5090542;28;20460;-42
2023/07/30 00:32:55;;;;;;;8.60;4.65;;;;;;;26.43;39.33;99326.78;5090609;28;20028;-44
2023/07/30 00:35:20;;;;;;;8.85;4.65;;;;;;;26.38;39.56;99327.72;5090701;28;20119;-48
2023/07/30 00:37:46;;;;;;;10.60;4.70;;;;;;;25.89;40.39;99326.91;5090693;28;20437;-43
2023/07/30 00:40:12;;;;;;;8.00;4.88;;;;;;;25.72;40.75;99317.56;5090541;28;20455;-45
2023/07/30 00:42:37;;;;;;;10.63;5.07;;;;;;;25.89;40.37;99316.00;5090444;28;20483;-46
2023/07/30 00:45:03;;;;;;;7.47;4.90;;;;;;;25.91;40.34;99317.34;5072063;28;20038;-43
2023/07/30 00:47:29;;;;;;;5.95;3.90;;;;;;;26.00;39.97;99311.13;5090530;28;20387;-45
2023/07/30 00:49:54;;;;;;;6.03;3.53;;;;;;;26.47;39.27;99319.53;5090524;28;20038;-43
2023/07/30 00:52:21;;;;;;;6.10;3.50;;;;;;;25.61;40.99;99323.59;5090631;28;20062;-44
2023/07/30 00:54:48;;;;;;;6.32;3.70;;;;;;;25.06;41.85;99306.47;5090491;28;20039;-42
2023/07/30 00:57:14;;;;;;;5.45;3.80;;;;;;;25.24;42.12;99321.00;5090499;28;20020;-43
2023/07/30 00:59:40;;;;;;;5.60;4.00;;;;;;;25.28;42.26;99327.44;5090337;28;20020;-44
2023/07/30 01:02:05;;;;;;;4.78;3.58;;;;;;;25.43;41.81;99320.00;5090392;28;20059;-45
2023/07/30 01:04:31;;;;;;;6.55;3.63;;;;;;;25.88;40.60;99322.59;5090183;28;20357;-43
2023/07/30 01:06:56;;;;;;;8.13;4.20;;;;;;;25.68;41.00;99323.94;5090235;28;20099;-42
2023/07/30 01:09:22;;;;;;;7.80;4.00;;;;;;;25.33;41.73;99324.59;5090076;28;20016;-45
2023/07/30 01:11:48;;;;;;;7.45;4.30;;;;;;;25.48;41.56;99328.84;5090298;28;20035;-41
2023/07/30 01:14:14;;;;;;;6.65;3.97;;;;;;;25.51;41.70;99328.22;5090455;28;20028;-44
2023/07/30 01:16:41;;;;;;;5.97;3.90;;;;;;;25.72;41.09;99325.75;5090102;28;20173;-42
2023/07/30 01:19:06;;;;;;;4.95;3.95;;;;;;;25.81;39.81;99331.22;5090379;28;20024;-46
2023/07/30 01:21:35;;;;;;;4.57;3.60;;;;;;;26.47;39.08;99328.53;5090110;28;20495;-43
2023/07/30 01:24:01;;;;;;;6.07;4.00;;;;;;;25.82;40.43;99321.94;5090061;28;20056;-43
2023/07/30 01:26:52;;;;;;;6.80;3.60;;;;;;;25.63;39.88;99318.66;5090131;28;20070;-44
2023/07/30 01:29:24;;;;;;;6.10;3.67;;;;;;;25.73;39.98;99323.81;5090255;28;20077;-42
2023/07/30 01:31:55;;;;;;;4.13;3.30;;;;;;;25.75;39.94;99319.66;5090072;28;20040;-43
2023/07/30 01:34:23;;;;;;;4.78;3.42;;;;;;;25.97;39.34;99328.09;5093898;28;20460;-43
2023/07/30 01:36:49;;;;;;;4.40;3.42;;;;;;;26.39;38.57;99333.97;5093808;28;20056;-42
2023/07/30 01:39:15;;;;;;;4.65;3.50;;;;;;;25.99;39.35;99329.41;5093807;28;20024;-42
2023/07/30 01:41:41;;;;;;;4.95;3.42;;;;;;;25.56;40.95;99330.00;5093961;28;20024;-45
2023/07/30 01:44:06;;;;;;;5.00;3.50;;;;;;;25.52;41.01;99324.38;5094182;28;20026;-43
2023/07/30 01:46:32;;;;;;;5.05;3.70;;;;;;;25.61;41.25;99323.59;5093528;28;20552;-42
2023/07/30 01:48:57;;;;;;;7.20;3.80;;;;;;;25.67;41.30;99328.59;5093625;28;20035;-42
2023/07/30 01:51:23;;;;;;;7.05;3.72;;;;;;;25.93;40.53;99334.19;5093742;28;20488;-43
2023/07/30 01:53:48;;;;;;;4.85;3.35;;;;;;;26.03;39.86;99341.28;5094002;28;20024;-43
2023/07/30 01:56:14;;;;;;;5.28;3.80;;;;;;;25.44;40.99;99332.50;5093697;28;20445;-41
2023/07/30 01:58:39;;;;;;;5.38;3.60;;;;;;;24.93;42.29;99335.34;5093381;28;20057;-42
2023/07/30 02:01:04;;;;;;;9.15;3.88;;;;;;;24.85;42.87;99335.31;5093388;28;20050;-42
2023/07/30 02:03:30;;;;;;;6.25;3.88;;;;;;;25.01;42.64;99341.16;5093479;28;20092;-43
2023/07/30 02:05:55;;;;;;;5.22;3.63;;;;;;;25.12;42.44;99339.81;5093358;28;20039;-43
2023/07/30 02:08:21;;;;;;;6.20;3.90;;;;;;;25.72;40.96;99335.81;5093375;28;20039;-45
2023/07/30 02:10:57;;;;;;;5.22;3.95;;;;;;;25.42;42.03;99338.25;5092959;28;20028;-43
2023/07/30 02:13:24;;;;;;;6.75;3.70;;;;;;;25.10;42.89;99336.59;5093298;28;20119;-44
2023/07/30 02:15:49;;;;;;;6.70;3.70;;;;;;;24.98;43.04;99343.41;5093052;28;20020;-43
2023/07/30 02:18:14;;;;;;;5.32;3.90;;;;;;;24.83;43.07;99318.44;5093215;28;20085;-46
2023/07/30 02:20:40;;;;;;;5.57;3.47;;;;;;;25.03;43.29;99338.94;5093281;28;20046;-44
2023/07/30 02:23:05;;;;;;;4.95;3.50;;;;;;;24.90;43.15;99346.03;5092956;28;20027;-46
2023/07/30 02:25:31;;;;;;;4.85;3.35;;;;;;;25.47;42.14;99342.75;5093005;28;20111;-45
2023/07/30 02:27:58;;;;;;;5.28;3.50;;;;;;;24.90;43.28;99348.75;5092920;28;20028;-42
2023/07/30 02:30:24;;;;;;;5.55;3.63;;;;;;;24.63;44.29;99352.38;5092968;28;20442;-43
2023/07/30 02:32:49;;;;;;;5.35;3.58;;;;;;;24.72;43.53;99345.91;5093113;28;20043;-44
2023/07/30 02:35:15;;;;;;;4.38;3.35;;;;;;;24.63;43.60;99346.94;5092769;28;20496;-42
2023/07/30 02:37:40;;;;;;;6.25;3.38;;;;;;;24.73;43.55;99354.88;5092427;28;20039;-43
2023/07/30 02:40:06;;;;;;;4.65;3.35;;;;;;;25.40;42.17;99353.28;5092762;28;20502;-44
2023/07/30 02:42:32;;;;;;;5.10;3.20;;;;;;;25.00;42.73;99353.97;5092634;28;20032;-42
2023/07/30 02:44:57;;;;;;;4.43;3.40;;;;;;;24.46;44.25;99355.72;5091234;28;20077;-44
2023/07/30 02:47:22;;;;;;;4.70;3.05;;;;;;;24.52;44.30;99359.97;5092258;28;20325;-44
2023/07/30 02:49:48;;;;;;;5.28;3.33;;;;;;;24.60;44.62;99359.25;5092551;28;20107;-43
2023/07/30 02:52:13;;;;;;;5.88;3.45;;;;;;;24.56;44.32;99369.09;5092562;28;20149;-45
2023/07/30 02:54:39;;;;;;;5.60;3.10;;;;;;;25.16;42.97;99363.38;5092384;28;20028;-45
2023/07/30 02:57:04;;;;;;;3.80;3.10;;;;;;;24.80;43.89;99368.84;5092445;28;20353;-45
2023/07/30 02:59:30;;;;;;;4.30;3.17;;;;;;;24.32;45.10;99369.34;5092260;28;20537;-43
2023/07/30 03:01:55;;;;;;;7.70;3.40;;;;;;;24.30;45.38;99372.34;5092314;28;20027;-46
2023/07/30 03:04:20;;;;;;;4.85;3.10;;;;;;;24.22;45.78;99377.69;5092314;28;20505;-43
2023/07/30 03:06:46;;;;;;;4.95;3.20;;;;;;;24.44;45.37;99374.25;5092183;28;20097;-44
2023/07/30 03:09:11;;;;;;;4.97;3.28;;;;;;;25.04;43.84;99381.38;5092045;28;20092;-41
2023/07/30 03:11:37;;;;;;;6.25;3.50;;;;;;;24.36;45.28;99379.28;5092318;28;20028;-43
2023/07/30 03:14:02;;;;;;;6.53;3.25;;;;;;;24.06;45.79;99386.16;5092322;28;20024;-42
2023/07/30 03:16:27;;;;;;;4.63;3.00;;;;;;;24.09;45.54;99388.28;5092209;28;20048;-43
2023/07/30 03:18:53;;;;;;;3.85;3.00;;;;;;;24.24;45.90;99389.06;5092036;28;20023;-42
2023/07/30 03:21:18;;;;;;;4.38;3.10;;;;;;;24.34;45.40;99384.22;5091955;28;20360;-43
2023/07/30 03:23:44;;;;;;;5.00;3.40;;;;;;;25.02;43.72;99392.56;5091665;28;20460;-41
2023/07/30 03:26:10;;;;;;;6.20;3.20;;;;;;;24.55;44.76;99395.50;5092193;28;20039;-43
2023/07/30 03:28:36;;;;;;;3.95;3.20;;;;;;;24.20;45.74;99388.88;5091573;28;20161;-42
2023/07/30 03:31:01;;;;;;;4.43;3.10;;;;;;;24.17;46.30;99392.19;5091731;28;20028;-47
2023/07/30 03:33:26;;;;;;;8.73;3.50;;;;;;;24.24;46.19;99387.16;5091708;28;20565;-45
2023/07/30 03:35:52;;;;;;;6.38;3.65;;;;;;;24.26;45.89;99384.16;5091544;28;20459;-43
2023/07/30 03:38:17;;;;;;;6.70;3.38;;;;;;;24.98;44.06;99392.38;5091710;28;20150;-46
2023/07/30 03:40:43;;;;;;;4.95;3.25;;;;;;;24.32;45.37;99391.09;5091749;28;20024;-41
2023/07/30 03:43:08;;;;;;;6.05;3.35;;;;;;;24.26;45.35;99392.31;5091809;28;20034;-45
2023/07/30 03:45:34;;;;;;;5.18;3.53;;;;;;;24.41;45.35;99389.28;5091367;28;20164;-45
2023/07/30 03:47:59;;;;;;;4.85;3.40;;;;;;;24.47;45.28;99388.03;5091406;28;20016;-46
2023/07/30 03:50:24;;;;;;;5.90;3.50;;;;;;;24.47;45.05;99392.69;5091409;28;20032;-44
2023/07/30 03:52:50;;;;;;;5.05;3.33;;;;;;;25.26;43.15;99389.56;5091659;28;20039;-44
2023/07/30 03:55:15;;;;;;;3.80;3.03;;;;;;;24.72;44.69;99394.06;5090935;28;20031;-43
2023/07/30 03:57:41;;;;;;;5.85;3.40;;;;;;;24.79;45.00;99394.47;5090821;28;20028;-43
2023/07/30 04:00:07;;;;;;;5.78;3.50;;;;;;;24.87;44.51;99396.44;5091382;28;20019;-43
2023/07/30 04:02:32;;;;;;;4.32;3.03;;;;;;;25.36;43.31;99402.16;5091297;28;20028;-45
2023/07/30 04:04:58;;;;;;;5.57;3.40;;;;;;;25.64;42.75;99400.06;5091538;28;20388;-45
2023/07/30 04:07:23;;;;;;;4.72;3.20;;;;;;;26.47;41.25;99406.84;5091111;28;20413;-45
2023/07/30 04:09:48;;;;;;;5.38;3.25;;;;;;;26.40;41.39;99406.50;5091117;28;20473;-45
2023/07/30 04:12:14;;;;;;;5.38;3.35;;;;;;;26.23;41.91;99404.50;5091348;28;20071;-43
2023/07/30 04:14:39;;;;;;;5.82;3.40;;;;;;;26.28;41.66;99409.84;5091456;28;20048;-46
2023/07/30 04:17:05;;;;;;;4.88;3.10;;;;;;;26.47;41.39;99404.91;5091217;28;20103;-43
2023/07/30 04:19:30;;;;;;;6.32;3.20;;;;;;;26.86;41.01;99407.88;5091166;28;20382;-47
2023/07/30 04:21:56;;;;;;;8.60;3.40;;;;;;;27.28;40.20;99417.22;5091174;28;20102;-42
2023/07/30 04:24:21;;;;;;;6.45;3.10;;;;;;;27.87;38.95;99419.34;5091060;28;20020;-42
2023/07/30 04:26:47;;;;;;;5.88;3.20;;;;;;;27.66;39.39;99421.16;5091337;28;20032;-44
2023/07/30 04:29:13;;;;;;;4.95;2.90;;;;;;;27.70;39.26;99424.84;5091146;28;20027;-42
2023/07/30 04:31:39;;;;;;;5.80;3.22;;;;;;;27.83;38.70;99421.09;5090609;28;20462;-44
2023/07/30 04:34:04;;;;;;;6.40;3.28;;;;;;;28.10;38.06;99426.53;5090627;28;20028;-43
2023/07/30 04:36:30;;;;;;;5.40;3.25;;;;;;;28.58;37.27;99419.88;5090184;28;20503;-45
2023/07/30 04:38:55;;;;;;;4.20;3.13;;;;;;;28.89;36.19;99426.91;5090886;28;20027;-47
2023/07/30 04:41:21;;;;;;;5.10;2.85;;;;;;;29.49;34.76;99425.59;5090687;28;20548;-45
2023/07/30 04:43:46;;;;;;;5.38;3.00;;;;;;;29.27;35.32;99424.03;5090620;28;20024;-43
2023/07/30 04:46:12;;;;;;;6.93;2.83;;;;;;;29.17;35.26;99425.25;5090594;28;20066;-45
2023/07/30 04:48:37;;;;;;;5.97;2.97;;;;;;;29.24;35.61;99422.78;5090715;28;20024;-45
2023/07/30 04:51:03;;;;;;;4.60;2.90;;;;;;;29.65;34.66;99424.97;5090860;28;20355;-43
2023/07/30 04:53:28;;;;;;;5.22;2.95;;;;;;;29.87;34.08;99427.31;5090492;28;20024;-44
2023/07/30 04:55:57;;;;;;;3.70;3.20;;;;;;;30.20;33.65;99429.97;5090232;28;20169;-44
2023/07/30 04:58:23;;;;;;;5.30;2.90;;;;;;;30.91;33.06;99430.63;5089810;28;20024;-44
2023/07/30 05:00:49;;;;;;;4.72;3.25;;;;;;;30.43;32.84;99426.00;5089641;28;20085;-44
2023/07/30 05:03:14;;;;;;;4.05;2.70;;;;;;;30.54;32.63;99422.44;5089643;28;20099;-44
2023/07/30 05:05:40;;;;;;;3.20;2.90;;;;;;;30.52;33.15;99419.25;5089921;28;20016;-43
2023/07/30 05:08:06;;;;;;;7.65;2.90;;;;;;;30.84;32.14;99422.13;5091949;28;20085;-44
2023/07/30 05:10:31;;;;;;;3.97;3.00;;;;;;;31.01;32.66;99425.78;5093984;28;20125;-44
2023/07/30 05:12:57;;;;;;;4.28;2.80;;;;;;;31.74;31.51;99427.44;5093745;28;20024;-43
2023/07/30 05:15:22;;;;;;;4.32;3.33;;;;;;;31.87;31.08;99431.72;5093930;28;20024;-45
2023/07/30 05:17:47;;;;;;;8.52;3.40;;;;;;;31.74;31.17;99430.97;5093865;28;20025;-45
2023/07/30 05:20:13;;;;;;;7.97;3.67;;;;;;;31.56;30.98;99430.50;5093912;28;20020;-42
2023/07/30 05:22:38;;;;;;;5.70;3.63;;;;;;;31.84;30.67;99432.41;5093589;28;20020;-42
2023/07/30 05:25:04;;;;;;;5.70;3.22;;;;;;;32.09;30.40;99437.78;5093602;28;20027;-44
2023/07/30 05:27:31;;;;;;;4.10;3.28;;;;;;;32.43;29.96;99441.72;5093546;28;20020;-43
2023/07/30 05:29:57;;;;;;;5.03;3.22;;;;;;;33.05;28.73;99432.84;5093453;28;20472;-44
2023/07/30 05:32:22;;;;;;;6.70;3.60;;;;;;;32.51;29.58;99437.97;5093530;28;20023;-42
2023/07/30 05:34:48;;;;;;;5.43;3.30;;;;;;;32.67;29.62;99438.00;5093237;28;20020;-44
2023/07/30 05:37:13;;;;;;;4.10;3.25;;;;;;;32.88;29.41;99434.06;5073475;28;20110;-43
2023/07/30 05:39:38;;;;;;;5.97;3.20;;;;;;;32.88;29.11;99442.34;5073281;28;20435;-42
2023/07/30 05:42:04;;;;;;;5.93;3.35;;;;;;;33.21;28.78;99439.13;5073135;28;20027;-44
2023/07/30 05:44:29;;;;;;;6.82;3.15;;;;;;;33.82;27.89;99432.03;5073421;28;20021;-44
2023/07/30 05:46:55;;;;;;;6.07;3.08;;;;;;;33.91;28.02;99437.31;5073048;28;20461;-44
2023/07/30 05:49:20;;;;;;;8.10;3.00;;;;;;;33.70;28.31;99437.72;5073116;28;20490;-45
2023/07/30 05:51:46;;;;;;;5.72;3.80;;;;;;;33.67;27.94;99435.69;5073077;28;20031;-45
2023/07/30 05:54:12;;;;;;;6.82;3.90;;;;;;;33.86;27.68;99432.88;5072869;28;20033;-44
2023/07/30 05:56:38;;;;;;;5.93;3.63;;;;;;;33.90;27.92;99438.47;5072987;28;20539;-45
2023/07/30 05:59:03;;;;;;;6.25;3.67;;;;;;;34.36;26.64;99441.19;5073111;28;20021;-44
2023/07/30 06:01:29;;;;;;;4.38;2.90;;;;;;;34.06;26.82;99441.06;5073214;28;20024;-44
2023/07/30 06:03:54;;;;;;;4.60;2.85;;;;;;;34.30;27.21;99434.41;5073060;28;20020;-43
2023/07/30 06:06:26;;;;;;;6.43;3.13;;;;;;;34.57;26.75;99431.63;5073077;28;20078;-43
2023/07/30 06:08:53;;;;;;;3.53;2.90;;;;;;;34.24;27.44;99433.13;5072925;28;20443;-45
2023/07/30 06:11:18;;;;;;;4.95;2.85;;;;;;;35.24;27.97;99431.78;5072999;28;20020;-42
2023/07/30 06:13:43;;;;;;;4.88;3.30;;;;;;;34.85;27.22;99428.50;5072973;28;20384;-42
2023/07/30 06:16:09;;;;;;;5.88;3.70;;;;;;;34.58;27.27;99428.50;5072984;28;20040;-42
2023/07/30 06:18:35;;;;;;;4.60;3.00;;;;;;;34.83;26.60;99419.78;5072846;28;20101;-43
2023/07/30 06:21:01;;;;;;;3.13;2.80;;;;;;;35.01;27.11;99426.34;5073163;28;20044;-44
2023/07/30 06:23:26;;;;;;;3.63;2.65;;;;;;;35.73;26.82;99429.91;5072762;28;20030;-45
2023/07/30 06:25:52;;;;;;;4.57;2.72;;;;;;;35.69;25.96;99434.63;5072757;28;20028;-44
2023/07/30 06:28:17;;;;;;;4.80;2.70;;;;;;;35.21;26.49;99427.00;5072726;28;20368;-43
2023/07/30 06:30:43;;;;;;;5.72;2.83;;;;;;;35.22;26.99;99427.78;5072803;28;20024;-43
2023/07/30 06:33:08;;;;;;;5.22;3.30;;;;;;;35.52;25.93;99421.38;5072727;28;20024;-42
2023/07/30 06:35:34;;;;;;;8.02;3.42;;;;;;;35.65;25.56;99419.16;5078952;28;20500;-44
2023/07/30 06:37:59;;;;;;;6.35;3.45;;;;;;;35.43;26.42;99419.72;5092960;28;20036;-42
2023/07/30 06:40:25;;;;;;;5.35;3.15;;;;;;;35.20;26.46;99424.59;5093220;28;20452;-45
2023/07/30 06:42:50;;;;;;;4.55;2.65;;;;;;;35.22;26.59;99409.25;5092907;28;20028;-42
2023/07/30 06:45:16;;;;;;;6.63;2.95;;;;;;;35.31;26.53;99414.44;5092740;28;20617;-43
2023/07/30 06:47:41;;;;;;;5.47;2.80;;;;;;;35.58;25.94;99409.59;5092736;28;20427;-44
2023/07/30 06:50:08;;;;;;;6.03;3.13;;;;;;;36.10;24.89;99414.41;5092772;28;20431;-44
2023/07/30 06:52:35;;;;;;;4.05;3.00;;;;;;;35.14;26.55;99409.50;5093006;28;20023;-43
2023/07/30 06:55:02;;;;;;;6.07;3.00;;;;;;;34.84;26.71;99405.59;5092464;28;20051;-44
2023/07/30 06:57:27;;;;;;;5.18;3.00;;;;;;;34.98;26.19;99413.25;5092369;28;20035;-43
2023/07/30 06:59:53;;;;;;;3.47;2.90;;;;;;;34.82;26.61;99402.41;5092356;28;20032;-44
2023/07/30 07:02:18;;;;;;;4.03;2.85;;;;;;;35.39;25.85;99391.22;5092154;28;20039;-44
2023/07/30 07:04:44;;;;;;;5.07;3.50;;;;;;;34.98;26.28;99390.38;5092003;28;20024;-44
2023/07/30 07:07:09;;;;;;;6.15;2.88;;;;;;;34.62;26.75;99387.13;5092247;28;20114;-44
2023/07/30 07:09:35;;;;;;;3.20;2.65;;;;;;;34.88;26.04;99386.31;5092270;28;20027;-42
2023/07/30 07:12:00;;;;;;;4.10;2.60;;;;;;;35.20;25.79;99383.91;5092179;28;20028;-42
2023/07/30 07:14:26;;;;;;;5.45;2.78;;;;;;;35.85;25.29;99386.53;5092211;28;20084;-43
2023/07/30 07:16:53;;;;;;;4.25;2.70;;;;;;;35.28;25.24;99386.75;5092054;28;20085;-43
2023/07/30 07:19:19;;;;;;;3.08;2.58;;;;;;;35.59;25.75;99386.28;5092307;28;20082;-43
2023/07/30 07:21:44;;;;;;;4.03;2.55;;;;;;;35.60;25.54;99382.34;5091820;28;20520;-42
2023/07/30 07:24:09;;;;;;;6.05;2.90;;;;;;;36.03;25.11;99387.47;5092314;28;20031;-45
2023/07/30 07:26:35;;;;;;;4.60;2.90;;;;;;;36.60;24.71;99384.28;5092200;28;20028;-42
2023/07/30 07:29:00;;;;;;;3.17;2.70;;;;;;;37.31;23.75;99383.00;5092024;28;20077;-42
2023/07/30 07:31:27;;;;;;;5.18;2.85;;;;;;;37.71;23.40;99381.88;5091283;28;20633;-44
2023/07/30 07:33:52;;;;;;;4.22;2.50;;;;;;;37.25;23.62;99379.81;5092154;28;20085;-44
2023/07/30 07:36:18;;;;;;;3.95;2.40;;;;;;;37.33;23.41;99380.63;5091847;28;20067;-43
2023/07/30 07:38:43;;;;;;;4.15;2.70;;;;;;;37.26;22.96;99375.88;5091580;28;20615;-43
2023/07/30 07:41:15;;;;;;;4.57;2.60;;;;;;;37.87;22.45;99375.94;5091494;28;20039;-42
2023/07/30 07:43:40;;;;;;;3.97;2.65;;;;;;;37.32;22.80;99370.72;5091459;28;20391;-42
2023/07/30 07:46:12;;;;;;;3.88;2.80;;;;;;;37.24;23.70;99364.34;5091209;28;20112;-43
2023/07/30 07:48:41;;;;;;;4.35;2.60;;;;;;;37.28;23.65;99369.91;5091659;28;20031;-42
2023/07/30 07:51:08;;;;;;;4.70;2.60;;;;;;;37.58;22.98;99369.53;5091641;28;20028;-43
2023/07/30 07:53:33;;;;;;;3.50;2.55;;;;;;;38.00;22.57;99369.97;5091570;28;20024;-43
2023/07/30 07:55:59;;;;;;;2.42;2.20;;;;;;;38.16;22.34;99364.00;5091549;28;20031;-44
2023/07/30 07:58:24;;;;;;;3.45;2.30;;;;;;;37.76;22.45;99364.03;5091040;28;20024;-44
2023/07/30 08:00:50;;;;;;;5.15;2.55;;;;;;;37.49;22.31;99360.81;5091307;28;20027;-43
2023/07/30 08:03:15;;;;;;;3.05;2.50;;;;;;;37.56;23.07;99360.81;5091207;28;20558;-45
2023/07/30 08:05:40;;;;;;;5.07;3.00;;;;;;;37.89;22.76;99356.09;5091242;28;20036;-44
2023/07/30 08:08:06;;;;;;;3.47;2.70;;;;;;;38.22;21.85;99363.22;5090524;28;20093;-43
2023/07/30 08:10:31;;;;;;;2.60;2.40;;;;;;;37.09;23.40;99354.38;5091273;28;20070;-45
2023/07/30 08:12:57;;;;;;;4.35;2.45;;;;;;;36.69;24.04;99351.50;5091569;28;20031;-43
2023/07/30 08:15:22;;;;;;;5.30;2.60;;;;;;;37.00;23.63;99343.69;5092049;28;20055;-44
2023/07/30 08:17:48;;;;;;;4.45;2.63;;;;;;;37.30;23.10;99345.34;5091755;28;20020;-43
2023/07/30 08:20:13;;;;;;;3.90;2.70;;;;;;;37.69;22.96;99341.84;5091409;28;20069;-43
2023/07/30 08:22:39;;;;;;;28.30;21.80;;;;;;;38.07;22.10;99334.69;5091111;28;20015;-43
2023/07/30 08:25:05;;;;;;;5.57;3.65;;;;;;;38.72;21.19;99340.06;5089754;28;20333;-43
2023/07/30 08:27:30;;;;;;;4.68;2.70;;;;;;;39.34;20.65;99349.66;5091022;28;20024;-46
2023/07/30 08:29:55;;;;;;;4.45;2.60;;;;;;;38.58;21.74;99340.91;5091358;28;20053;-44
2023/07/30 08:32:21;;;;;;;3.90;2.28;;;;;;;38.45;21.31;99337.75;5090090;28;20032;-44
2023/07/30 08:34:46;;;;;;;3.60;2.72;;;;;;;38.18;21.41;99336.66;5088877;28;20024;-43
2023/07/30 08:37:12;;;;;;;2.90;2.50;;;;;;;37.71;22.10;99322.81;5088086;28;20539;-43
2023/07/30 08:39:37;;;;;;;9.07;8.00;;;;;;;37.61;21.97;99327.16;5088647;28;20024;-44
2023/07/30 08:42:03;;;;;;;3.60;3.00;;;;;;;37.76;21.62;99308.53;5088404;28;20024;-43
2023/07/30 08:44:29;;;;;;;3.83;2.40;;;;;;;38.88;20.33;99314.53;5089770;28;20400;-43
2023/07/30 08:46:54;;;;;;;3.08;2.60;;;;;;;37.86;21.27;99304.16;5089460;28;20030;-44
2023/07/30 08:49:20;;;;;;;2.72;2.20;;;;;;;37.83;21.34;99302.94;5089084;28;20024;-43
2023/07/30 08:51:51;;;;;;;3.70;2.30;;;;;;;37.81;21.70;99302.56;5089368;28;20419;-44
2023/07/30 08:54:20;;;;;;;3.05;2.28;;;;;;;37.97;22.34;99295.78;5090190;28;20438;-43
2023/07/30 08:56:46;;;;;;;3.92;2.35;;;;;;;38.29;21.58;99284.63;5090176;28;20375;-44
2023/07/30 08:59:13;;;;;;;5.00;2.50;;;;;;;38.67;21.76;99280.13;5090002;28;20043;-44
2023/07/30 09:01:40;;;;;;;2.83;2.50;;;;;;;38.92;21.02;99276.41;5090021;28;20107;-44
2023/07/30 09:04:06;;;;;;;35.70;28.23;;;;;;;39.21;20.93;99282.56;5090026;28;20024;-42
2023/07/30 09:06:35;;;;;;;9.98;7.35;;;;;;;38.88;21.26;99272.84;5089982;28;20138;-43
2023/07/30 09:09:02;;;;;;;2.83;2.45;;;;;;;38.49;21.57;99269.06;5090188;28;20024;-46
2023/07/30 09:11:28;;;;;;;3.08;2.50;;;;;;;38.08;22.41;99271.59;5090069;28;20024;-42
2023/07/30 09:13:57;;;;;;;3.55;2.78;;;;;;;37.85;22.05;99269.25;5090588;28;20034;-44
2023/07/30 09:16:26;;;;;;;6.10;2.83;;;;;;;37.80;22.38;99266.91;5090193;28;20081;-43
2023/07/30 09:18:53;;;;;;;2.85;2.33;;;;;;;38.38;21.66;99261.97;5090129;28;20468;-42
2023/07/30 09:21:19;;;;;;;4.22;2.63;;;;;;;39.12;21.08;99256.44;5089957;28;20077;-43
2023/07/30 09:23:47;;;;;;;4.60;2.72;;;;;;;39.22;20.58;99238.84;5089894;28;20012;-44
2023/07/30 09:26:14;;;;;;;4.07;2.80;;;;;;;38.34;21.34;99250.88;5090043;28;20115;-42
2023/07/30 09:28:40;;;;;;;3.80;2.80;;;;;;;37.85;21.99;99242.31;5090010;28;20020;-45
2023/07/30 09:31:08;;;;;;;7.45;6.75;;;;;;;37.98;21.99;99237.09;5090234;28;20043;-42
2023/07/30 09:33:34;;;;;;;14.13;10.75;;;;;;;38.08;22.23;99236.31;5071865;28;20340;-45
2023/07/30 09:36:04;;;;;;;2.63;2.40;;;;;;;38.05;22.00;99241.84;5090056;28;20055;-43
2023/07/30 09:38:32;;;;;;;2.75;2.40;;;;;;;37.30;22.63;99237.16;5090072;28;20476;-44
2023/07/30 09:41:02;;;;;;;3.35;2.35;;;;;;;37.79;22.30;99224.44;5089700;28;20107;-45
2023/07/30 09:43:34;;;;;;;3.67;2.58;;;;;;;37.45;22.61;99224.91;5089729;28;20428;-42
2023/07/30 09:46:05;;;;;;;3.45;2.47;;;;;;;37.37;22.65;99221.31;5089960;28;20455;-43
2023/07/30 09:48:32;;;;;;;2.80;2.50;;;;;;;37.26;22.70;99225.28;5089855;28;20022;-44
2023/07/30 09:51:02;;;;;;;4.90;2.65;;;;;;;37.05;22.49;99209.41;5090149;28;20026;-43
2023/07/30 09:53:35;;;;;;;3.60;2.50;;;;;;;37.31;22.77;99200.72;5091000;28;20027;-45
2023/07/30 09:56:06;;;;;;;3.05;2.40;;;;;;;37.31;22.95;99206.25;5093617;28;20024;-43
2023/07/30 09:58:31;;;;;;;3.33;2.63;;;;;;;37.41;22.74;99203.88;5093493;28;20031;-45
2023/07/30 10:01:02;;;;;;;4.25;2.60;;;;;;;37.52;22.50;99196.34;5093595;28;20077;-44
2023/07/30 10:03:28;;;;;;;3.88;2.40;;;;;;;37.77;22.56;99198.28;5093196;28;20016;-45
2023/07/30 10:06:01;;;;;;;29.05;23.17;;;;;;;37.78;22.53;99186.00;5093314;28;20035;-43
2023/07/30 10:08:28;;;;;;;3.55;2.55;;;;;;;38.10;22.33;99191.47;5092898;28;20024;-44
2023/07/30 10:10:55;;;;;;;5.63;2.80;;;;;;;38.12;22.21;99178.75;5093204;28;20027;-44
2023/07/30 10:13:22;;;;;;;4.85;2.78;;;;;;;38.04;21.80;99177.19;5093690;28;20032;-42
2023/07/30 10:15:47;;;;;;;3.17;2.65;;;;;;;38.46;22.26;99167.06;5093618;28;20031;-44
2023/07/30 10:18:13;;;;;;;3.90;2.33;;;;;;;38.27;21.19;99170.34;5093138;28;20040;-44
2023/07/30 10:20:39;;;;;;;3.05;2.30;;;;;;;38.10;21.43;99169.25;5093311;28;20047;-44
2023/07/30 10:23:05;;;;;;;2.58;2.25;;;;;;;38.40;21.35;99165.13;5093438;28;20063;-44
2023/07/30 10:25:48;;;;;;;2.45;2.25;;;;;;;37.95;21.65;99158.16;5093567;28;20149;-44
2023/07/30 10:28:38;;;;;;;3.95;2.33;;;;;;;37.46;22.18;99170.97;5093162;28;20025;-43
2023/07/30 10:31:08;;;;;;;3.00;2.50;;;;;;;37.16;22.83;99165.88;5093572;28;20031;-43
2023/07/30 10:33:53;;;;;;;2.55;2.35;;;;;;;37.22;22.25;99157.94;5092840;28;20426;-43
2023/07/30 10:36:45;;;;;;;2.90;2.30;;;;;;;37.30;22.32;99152.00;5092799;28;20043;-42
2023/07/30 10:39:12;;;;;;;2.25;2.05;;;;;;;37.54;22.37;99139.25;5092762;28;20040;-44
2023/07/30 10:41:38;;;;;;;3.85;2.25;;;;;;;37.50;21.80;99149.56;5092799;28;20059;-42
2023/07/30 10:44:03;;;;;;;2.55;2.20;;;;;;;37.78;20.91;99142.38;5092899;28;20063;-43
2023/07/30 10:46:29;;;;;;;2.83;2.40;;;;;;;37.43;21.74;99140.47;5092352;28;20560;-44
2023/07/30 10:48:54;;;;;;;24.05;21.30;;;;;;;37.73;21.70;99129.69;5092582;28;20024;-44
2023/07/30 10:51:23;;;;;;;2.50;2.10;;;;;;;37.83;20.75;99139.16;5092669;28;20032;-42
2023/07/30 10:53:50;;;;;;;3.03;2.10;;;;;;;36.54;21.55;99119.88;5092447;28;20028;-42
2023/07/30 10:56:25;;;;;;;3.03;2.30;;;;;;;36.62;21.87;99134.53;5092462;28;20407;-45
2023/07/30 10:58:53;;;;;;;3.63;2.38;;;;;;;36.83;20.70;99129.03;5092610;28;20024;-43
2023/07/30 11:01:18;;;;;;;2.30;2.10;;;;;;;37.41;21.47;99128.97;5092168;28;20526;-44
2023/07/30 11:03:48;;;;;;;3.25;2.03;;;;;;;37.75;20.71;99109.88;5092268;28;20040;-44
2023/07/30 11:06:13;;;;;;;2.17;1.98;;;;;;;37.65;20.33;99127.38;5090892;28;20020;-43
2023/07/30 11:08:41;;;;;;;2.30;2.08;;;;;;;37.69;20.45;99119.81;5092488;28;20372;-43
2023/07/30 11:11:10;;;;;;;2.75;2.20;;;;;;;37.25;20.04;99085.81;5092488;28;20392;-43
2023/07/30 11:13:43;;;;;;;3.20;2.08;;;;;;;37.42;20.19;99109.16;5092055;28;20043;-43
2023/07/30 11:16:10;;;;;;;2.33;2.10;;;;;;;38.07;19.48;99112.53;5092260;28;20506;-44
2023/07/30 11:18:36;;;;;;;2.50;2.25;;;;;;;38.12;19.51;99103.78;5091577;28;20035;-43
2023/07/30 11:21:10;;;;;;;2.47;2.10;;;;;;;38.16;18.98;99102.94;5092284;28;20051;-44
2023/07/30 11:23:37;;;;;;;3.13;2.83;;;;;;;38.29;19.32;99112.38;5092146;28;20032;-44
2023/07/30 11:26:04;;;;;;;5.13;4.57;;;;;;;38.48;19.50;99102.72;5091976;28;20468;-43
2023/07/30 11:28:34;;;;;;;2.85;2.20;;;;;;;39.02;19.40;99108.69;5092183;28;20023;-44
2023/07/30 11:31:09;;;;;;;2.85;2.20;;;;;;;38.83;19.08;99098.91;5091929;28;20027;-43